Time;durP1;ratioP1;P1;durP2;ratioP2;P2;SDS_P1;SDS_P2;PMS_P1;PMS_P2;Temp;Humidity;BMP_temperature;BMP_pressure;BME280_temperature;BME280_humidity;BME280_pressure;Samples;Min_cycle;Max_cycle;Signal;HPM_P1;HPM_P2
2022/08/07 00:00:23;;;;;;;2.37;2.07;;;21.10;40.80;;;;;;20539;6913;117147;31
2022/08/07 00:02:48;;;;;;;2.40;2.27;;;21.20;40.20;;;;;;20303;6913;299421;31
2022/08/07 00:05:14;;;;;;;2.70;2.30;;;21.40;39.90;;;;;;20283;6913;343414;31
2022/08/07 00:07:39;;;;;;;2.57;2.37;;;21.70;40.00;;;;;;20535;6913;116355;31
2022/08/07 00:10:05;;;;;;;2.80;2.60;;;21.50;40.10;;;;;;20328;6913;310011;31
2022/08/07 00:12:31;;;;;;;3.33;2.75;;;21.50;41.10;;;;;;20325;6913;312958;31
2022/08/07 00:14:57;;;;;;;2.77;2.57;;;21.70;41.30;;;;;;20539;6913;116259;31
2022/08/07 00:17:22;;;;;;;2.28;2.17;;;21.50;41.20;;;;;;20443;6925;117789;31
2022/08/07 00:19:48;;;;;;;2.93;2.63;;;21.10;41.40;;;;;;20297;6915;282185;31
2022/08/07 00:22:13;;;;;;;2.78;2.30;;;21.20;41.50;;;;;;20466;6934;116669;31
2022/08/07 00:24:40;;;;;;;2.37;2.28;;;21.00;41.30;;;;;;20286;6922;310160;31
2022/08/07 00:27:06;;;;;;;2.30;2.20;;;21.10;41.20;;;;;;20492;6922;117620;31
2022/08/07 00:29:31;;;;;;;2.22;2.12;;;21.00;41.20;;;;;;20491;6926;125742;31
2022/08/07 00:31:58;;;;;;;2.40;2.20;;;20.80;41.30;;;;;;20310;6926;279669;31
2022/08/07 00:34:23;;;;;;;2.40;2.13;;;20.90;40.00;;;;;;20556;6926;116878;31
2022/08/07 00:36:48;;;;;;;2.75;2.62;;;20.80;40.10;;;;;;20299;6926;279753;31
2022/08/07 00:39:14;;;;;;;2.63;2.43;;;21.00;39.90;;;;;;20494;6924;118528;31
2022/08/07 00:41:39;;;;;;;4.62;2.65;;;20.90;39.90;;;;;;20508;6925;116520;31
2022/08/07 00:44:05;;;;;;;2.87;2.53;;;20.70;40.20;;;;;;20273;6925;279500;31
2022/08/07 00:46:30;;;;;;;2.40;2.30;;;20.90;39.90;;;;;;20296;6925;338278;31
2022/08/07 00:49:00;;;;;;;2.87;2.30;;;21.10;39.40;;;;;;20501;6925;117765;31
2022/08/07 00:51:22;;;;;;;2.57;2.10;;;20.90;39.40;;;;;;20264;6925;309004;31
2022/08/07 00:53:47;;;;;;;2.07;1.97;;;21.00;39.20;;;;;;20498;6925;118738;31
2022/08/07 00:56:14;;;;;;;2.12;1.92;;;20.90;39.50;;;;;;20294;6925;281959;31
2022/08/07 00:58:38;;;;;;;1.93;1.80;;;21.00;39.90;;;;;;20492;6925;117165;31
2022/08/07 01:01:04;;;;;;;2.27;2.10;;;20.90;40.00;;;;;;20280;6925;281720;31
2022/08/07 01:03:29;;;;;;;2.07;1.97;;;21.00;39.60;;;;;;20275;6925;312779;31
2022/08/07 01:05:55;;;;;;;2.70;2.00;;;21.30;39.50;;;;;;20291;6925;292272;31
2022/08/07 01:08:21;;;;;;;1.90;1.70;;;21.50;39.10;;;;;;20499;6925;118159;31
2022/08/07 01:10:46;;;;;;;1.93;1.83;;;21.30;39.00;;;;;;20293;6925;280783;31
2022/08/07 01:13:12;;;;;;;1.90;1.80;;;21.30;38.00;;;;;;20501;6925;117429;31
2022/08/07 01:15:37;;;;;;;1.40;1.30;;;21.20;38.20;;;;;;20479;6925;120208;31
2022/08/07 01:18:03;;;;;;;1.95;1.80;;;20.90;38.30;;;;;;20496;6926;119237;31
2022/08/07 01:20:28;;;;;;;3.83;1.30;;;20.70;38.40;;;;;;20496;6926;119635;31
2022/08/07 01:22:54;;;;;;;1.53;1.43;;;20.50;38.30;;;;;;20477;6926;116301;31
2022/08/07 01:25:20;;;;;;;2.37;1.60;;;20.40;38.30;;;;;;20261;6926;280962;31
2022/08/07 01:27:45;;;;;;;2.77;1.77;;;20.60;36.00;;;;;;20434;6946;117040;31
2022/08/07 01:30:11;;;;;;;3.47;1.90;;;20.70;36.50;;;;;;20496;6926;116428;31
2022/08/07 01:32:36;;;;;;;1.60;1.50;;;20.50;36.80;;;;;;20279;6926;309905;31
2022/08/07 01:35:02;;;;;;;1.87;1.63;;;20.70;35.90;;;;;;20300;6926;311779;31
2022/08/07 01:37:28;;;;;;;2.17;1.93;;;21.10;35.70;;;;;;20466;6931;119121;31
2022/08/07 01:39:53;;;;;;;3.70;1.80;;;20.90;35.40;;;;;;20485;6931;117634;31
2022/08/07 01:42:19;;;;;;;1.55;1.42;;;20.60;35.90;;;;;;20490;6931;116344;31
2022/08/07 01:44:46;;;;;;;1.90;1.80;;;20.40;36.40;;;;;;20539;6912;116527;31
2022/08/07 01:47:10;;;;;;;2.17;1.60;;;20.20;36.80;;;;;;20497;6912;117415;31
2022/08/07 01:49:36;;;;;;;1.80;1.70;;;20.00;37.10;;;;;;20480;6926;117589;31
2022/08/07 01:52:01;;;;;;;1.70;1.60;;;19.90;37.40;;;;;;20290;6924;281091;31
2022/08/07 01:54:27;;;;;;;1.70;1.60;;;20.10;36.90;;;;;;20495;6925;116373;31
2022/08/07 01:56:55;;;;;;;1.60;1.50;;;20.20;36.80;;;;;;20287;6925;281967;31
2022/08/07 01:59:24;;;;;;;1.93;1.63;;;20.40;35.90;;;;;;20264;6921;282731;31
2022/08/07 02:01:59;;;;;;;1.63;1.53;;;20.70;35.40;;;;;;20285;6921;310552;31
2022/08/07 02:04:26;;;;;;;1.70;1.60;;;20.90;35.20;;;;;;20269;6927;285921;31
2022/08/07 02:06:51;;;;;;;1.80;1.70;;;21.00;35.10;;;;;;20484;6925;117426;31
2022/08/07 02:09:16;;;;;;;1.50;1.40;;;20.80;35.70;;;;;;20477;6925;117395;31
2022/08/07 02:11:42;;;;;;;1.60;1.50;;;20.50;36.10;;;;;;20501;6925;117044;31
2022/08/07 02:14:09;;;;;;;1.97;1.27;;;20.20;36.40;;;;;;20481;6925;116325;31
2022/08/07 02:16:34;;;;;;;1.80;1.70;;;19.90;36.40;;;;;;20267;6925;311607;31
2022/08/07 02:19:03;;;;;;;1.43;1.40;;;20.10;35.50;;;;;;20323;6920;310182;31
2022/08/07 02:21:28;;;;;;;3.50;1.30;;;20.40;35.40;;;;;;20517;6920;117808;31
2022/08/07 02:23:54;;;;;;;2.23;1.27;;;20.30;35.60;;;;;;20295;6920;340896;31
2022/08/07 02:26:20;;;;;;;1.47;1.10;;;20.30;35.00;;;;;;20504;6920;117564;31
2022/08/07 02:28:45;;;;;;;1.50;1.40;;;20.20;35.40;;;;;;20510;6920;118462;31
2022/08/07 02:31:11;;;;;;;1.60;1.40;;;19.80;35.70;;;;;;20296;6920;280661;31
2022/08/07 02:33:36;;;;;;;1.60;1.47;;;19.90;36.00;;;;;;20275;6920;342297;31
2022/08/07 02:36:02;;;;;;;2.22;1.90;;;20.20;35.10;;;;;;20508;6920;117694;31
2022/08/07 02:38:27;;;;;;;2.22;1.37;;;20.10;35.50;;;;;;20509;6920;117407;31
2022/08/07 02:40:53;;;;;;;1.40;1.30;;;19.80;36.20;;;;;;20300;6920;294049;31
2022/08/07 02:43:19;;;;;;;4.77;1.50;;;19.90;35.60;;;;;;20488;6920;123060;31
2022/08/07 02:45:44;;;;;;;2.20;1.20;;;19.90;35.60;;;;;;20306;6920;309231;31
2022/08/07 02:48:10;;;;;;;1.67;1.30;;;20.00;35.60;;;;;;20552;6920;116554;31
2022/08/07 02:50:37;;;;;;;1.45;1.35;;;19.90;35.80;;;;;;20346;6920;310319;31
2022/08/07 02:53:04;;;;;;;2.42;1.50;;;20.10;35.50;;;;;;20297;6920;316460;31
2022/08/07 02:55:31;;;;;;;2.47;1.40;;;20.30;35.00;;;;;;20256;6920;310292;31
2022/08/07 02:58:01;;;;;;;2.17;1.53;;;20.60;34.60;;;;;;20511;6920;117519;31
2022/08/07 03:00:22;;;;;;;1.23;1.20;;;20.40;35.00;;;;;;20481;6920;117714;31
2022/08/07 03:02:48;;;;;;;1.73;1.37;;;20.00;36.20;;;;;;20317;6918;281073;31
2022/08/07 03:05:14;;;;;;;1.30;1.27;;;20.00;35.60;;;;;;20299;6919;324802;31
2022/08/07 03:07:41;;;;;;;2.27;1.27;;;20.30;35.50;;;;;;20505;6924;117740;31
2022/08/07 03:10:07;;;;;;;1.50;1.50;;;20.10;35.80;;;;;;20500;6925;118660;31
2022/08/07 03:12:32;;;;;;;4.13;2.67;;;19.80;36.40;;;;;;20494;6925;124551;31
2022/08/07 03:14:58;;;;;;;1.20;1.20;;;19.50;36.60;;;;;;20495;6925;120498;31
2022/08/07 03:17:23;;;;;;;1.37;1.30;;;19.30;36.90;;;;;;20269;6925;282051;31
2022/08/07 03:19:49;;;;;;;1.50;1.40;;;19.50;36.60;;;;;;20290;6925;310769;31
2022/08/07 03:22:14;;;;;;;1.20;1.10;;;19.80;36.20;;;;;;20495;6925;117484;31
2022/08/07 03:24:40;;;;;;;2.63;1.40;;;19.70;36.40;;;;;;20487;6925;121473;31
2022/08/07 03:27:05;;;;;;;1.60;1.50;;;19.40;36.70;;;;;;20281;6925;310854;31
2022/08/07 03:29:32;;;;;;;3.03;1.50;;;19.60;36.30;;;;;;20472;6925;117645;31
2022/08/07 03:31:57;;;;;;;2.40;1.40;;;19.50;36.40;;;;;;20283;6925;299319;31
2022/08/07 03:34:22;;;;;;;1.20;1.20;;;19.60;36.30;;;;;;20488;6925;117311;31
2022/08/07 03:36:48;;;;;;;1.60;1.40;;;19.50;36.50;;;;;;20282;6925;281649;31
2022/08/07 03:39:13;;;;;;;1.50;1.40;;;19.60;36.30;;;;;;20276;6925;344678;31
2022/08/07 03:41:39;;;;;;;1.70;1.60;;;19.80;36.40;;;;;;20161;6920;300313;31
2022/08/07 03:44:05;;;;;;;1.40;1.30;;;19.90;36.00;;;;;;20507;6920;116825;31
2022/08/07 03:46:30;;;;;;;1.60;1.50;;;19.70;36.30;;;;;;20255;6935;310474;31
2022/08/07 03:48:56;;;;;;;1.77;1.60;;;19.70;36.60;;;;;;20285;6925;342535;31
2022/08/07 03:51:21;;;;;;;1.83;1.73;;;19.80;36.60;;;;;;20475;6925;117795;31
2022/08/07 03:53:47;;;;;;;1.50;1.45;;;19.60;36.90;;;;;;20291;6925;286490;31
2022/08/07 03:56:13;;;;;;;5.33;1.70;;;19.60;36.80;;;;;;20474;6935;117367;31
2022/08/07 03:58:38;;;;;;;2.93;1.70;;;19.40;37.10;;;;;;20462;6935;116978;31
2022/08/07 04:01:04;;;;;;;1.83;1.73;;;19.10;37.50;;;;;;20470;6935;117319;31
2022/08/07 04:03:29;;;;;;;1.70;1.60;;;18.80;38.00;;;;;;20234;6935;312280;31
2022/08/07 04:05:55;;;;;;;2.37;2.00;;;19.00;38.30;;;;;;20287;6925;312754;31
2022/08/07 04:08:20;;;;;;;1.77;1.67;;;19.30;38.00;;;;;;20469;6935;117333;31
2022/08/07 04:10:47;;;;;;;1.63;1.60;;;19.20;38.10;;;;;;20461;6935;117319;31
2022/08/07 04:13:12;;;;;;;2.07;1.53;;;18.90;38.30;;;;;;20250;6933;283964;31
2022/08/07 04:15:37;;;;;;;1.70;1.60;;;19.10;38.60;;;;;;20236;6934;312307;31
2022/08/07 04:18:03;;;;;;;1.50;1.40;;;19.40;38.00;;;;;;20260;6934;311173;31
2022/08/07 04:20:28;;;;;;;1.70;1.60;;;19.70;37.50;;;;;;20255;6934;342506;31
2022/08/07 04:22:54;;;;;;;1.33;1.23;;;19.90;37.20;;;;;;20490;6925;117219;31
2022/08/07 04:25:23;;;;;;;1.87;1.30;;;19.80;37.50;;;;;;20443;6934;117431;31
2022/08/07 04:27:48;;;;;;;1.57;1.57;;;19.50;37.80;;;;;;20464;6934;119399;31
2022/08/07 04:30:14;;;;;;;1.50;1.40;;;19.20;38.10;;;;;;20291;6925;282499;31
2022/08/07 04:32:39;;;;;;;1.47;1.30;;;19.40;38.10;;;;;;20283;6925;310060;31
2022/08/07 04:35:06;;;;;;;1.37;1.27;;;19.70;37.50;;;;;;20494;6925;117193;31
2022/08/07 04:37:32;;;;;;;2.20;1.47;;;19.50;37.50;;;;;;20260;6925;283108;31
2022/08/07 04:39:58;;;;;;;2.20;1.60;;;19.60;37.50;;;;;;20275;6935;295300;31
2022/08/07 04:42:33;;;;;;;2.50;1.48;;;19.80;37.30;;;;;;20286;6935;339486;31
2022/08/07 04:44:55;;;;;;;1.50;1.40;;;20.00;37.40;;;;;;20451;6935;116980;31
2022/08/07 04:47:28;;;;;;;1.65;1.50;;;19.80;37.80;;;;;;20245;6935;339944;31
2022/08/07 04:50:10;;;;;;;2.90;1.43;;;19.80;37.60;;;;;;20460;6935;116973;31
2022/08/07 04:52:45;;;;;;;1.83;1.43;;;19.60;37.80;;;;;;20144;6935;117363;31
2022/08/07 04:55:28;;;;;;;1.70;1.60;;;19.40;38.40;;;;;;20243;6935;311040;31
2022/08/07 04:57:53;;;;;;;1.53;1.40;;;19.60;38.20;;;;;;20481;6935;116977;31
2022/08/07 05:00:25;;;;;;;1.70;1.60;;;19.60;38.30;;;;;;20499;6935;116609;31
2022/08/07 05:02:54;;;;;;;1.77;1.60;;;19.40;38.50;;;;;;20092;6935;310446;31
2022/08/07 05:05:42;;;;;;;1.60;1.50;;;19.60;38.10;;;;;;20279;6920;310196;31
2022/08/07 05:08:11;;;;;;;1.53;1.40;;;19.90;38.20;;;;;;20448;6935;117510;31
2022/08/07 05:10:46;;;;;;;1.50;1.50;;;19.80;38.40;;;;;;20227;6935;313643;31
2022/08/07 05:13:15;;;;;;;1.70;1.60;;;19.90;38.30;;;;;;20451;6935;120353;31
2022/08/07 05:15:40;;;;;;;2.67;1.43;;;19.70;38.40;;;;;;20461;6935;117317;31
2022/08/07 05:18:06;;;;;;;2.07;1.70;;;19.50;38.80;;;;;;20230;6935;310629;31
2022/08/07 05:20:31;;;;;;;2.50;1.70;;;19.70;38.90;;;;;;20265;6925;309426;31
2022/08/07 05:22:57;;;;;;;2.20;1.98;;;20.00;38.80;;;;;;20251;6925;343160;31
2022/08/07 05:25:23;;;;;;;2.80;2.03;;;20.20;38.30;;;;;;20428;6933;123258;31
2022/08/07 05:27:48;;;;;;;1.90;1.80;;;20.00;38.40;;;;;;20471;6934;119691;31
2022/08/07 05:30:14;;;;;;;2.10;1.90;;;19.70;38.90;;;;;;20464;6934;117267;31
2022/08/07 05:32:39;;;;;;;1.92;1.83;;;19.40;39.40;;;;;;20525;6920;120032;31
2022/08/07 05:35:05;;;;;;;1.77;1.67;;;19.30;39.80;;;;;;20454;6934;117294;31
2022/08/07 05:37:31;;;;;;;2.50;2.40;;;19.10;40.30;;;;;;20238;6934;302753;31
2022/08/07 05:39:56;;;;;;;2.70;2.60;;;19.40;40.70;;;;;;20489;6934;117124;31
2022/08/07 05:42:22;;;;;;;2.63;2.53;;;19.50;40.50;;;;;;20505;6925;117414;31
2022/08/07 05:44:49;;;;;;;2.33;2.23;;;19.30;40.70;;;;;;20467;6935;118824;31
2022/08/07 05:47:18;;;;;;;2.60;2.50;;;19.20;41.10;;;;;;20466;6935;117319;31
2022/08/07 05:49:40;;;;;;;2.80;2.60;;;19.10;41.30;;;;;;20210;6908;116433;31
2022/08/07 05:52:07;;;;;;;3.17;3.03;;;19.10;41.70;;;;;;20357;6908;278745;31
2022/08/07 05:54:32;;;;;;;3.50;3.30;;;19.40;42.60;;;;;;20307;6920;282898;31
2022/08/07 05:56:58;;;;;;;3.30;3.10;;;19.80;42.10;;;;;;20317;6920;307888;31
2022/08/07 05:59:28;;;;;;;3.57;3.27;;;20.20;41.90;;;;;;20534;6920;69329;31
2022/08/07 06:01:54;;;;;;;2.70;2.60;;;20.10;41.60;;;;;;20513;6920;117373;31
2022/08/07 06:04:20;;;;;;;3.47;3.20;;;19.90;41.80;;;;;;20530;6920;117444;31
2022/08/07 06:06:48;;;;;;;2.75;2.55;;;19.80;42.30;;;;;;20323;6920;310087;31
2022/08/07 06:09:11;;;;;;;2.10;2.00;;;20.00;43.90;;;;;;20298;6920;284064;31
2022/08/07 06:11:36;;;;;;;2.75;2.55;;;20.50;43.40;;;;;;20279;6920;286040;31
2022/08/07 06:14:02;;;;;;;2.47;2.37;;;21.00;42.50;;;;;;20497;6920;119599;31
2022/08/07 06:16:28;;;;;;;3.40;3.10;;;21.30;42.40;;;;;;20296;6920;281554;31
2022/08/07 06:18:53;;;;;;;2.87;2.67;;;21.60;41.60;;;;;;20478;6920;120201;31
2022/08/07 06:21:19;;;;;;;3.30;3.00;;;21.80;41.30;;;;;;20278;6920;309975;31
2022/08/07 06:23:44;;;;;;;3.00;2.70;;;22.10;41.10;;;;;;20505;6920;117656;31
2022/08/07 06:26:11;;;;;;;3.50;3.20;;;22.20;40.90;;;;;;20513;6920;116557;31
2022/08/07 06:28:35;;;;;;;3.50;3.30;;;22.10;41.10;;;;;;20505;6920;117840;31
2022/08/07 06:31:01;;;;;;;4.00;3.70;;;22.10;41.30;;;;;;20259;6920;304093;31
2022/08/07 06:33:27;;;;;;;3.80;3.60;;;22.30;41.20;;;;;;20499;6920;117331;31
2022/08/07 06:35:52;;;;;;;3.63;3.43;;;22.50;41.10;;;;;;20499;6920;120408;31
2022/08/07 06:38:18;;;;;;;3.40;3.20;;;22.50;41.20;;;;;;20512;6918;117196;31
2022/08/07 06:40:47;;;;;;;3.05;2.75;;;22.50;41.20;;;;;;20509;6919;117862;31
2022/08/07 06:43:12;;;;;;;2.60;2.47;;;22.60;41.20;;;;;;20492;6920;120960;31
2022/08/07 06:45:38;;;;;;;3.30;3.10;;;22.70;41.40;;;;;;20483;6920;118274;31
2022/08/07 06:48:05;;;;;;;2.60;2.50;;;22.90;41.40;;;;;;20444;6920;122844;31
2022/08/07 06:50:29;;;;;;;2.30;2.20;;;23.20;41.30;;;;;;20502;6920;122286;31
2022/08/07 06:52:55;;;;;;;2.77;2.67;;;23.50;41.20;;;;;;20496;6920;117290;31
2022/08/07 06:55:23;;;;;;;3.87;3.67;;;23.70;40.80;;;;;;20276;6920;280670;31
2022/08/07 06:57:49;;;;;;;3.23;3.03;;;24.30;39.70;;;;;;20286;6920;282801;31
2022/08/07 07:00:15;;;;;;;2.87;2.77;;;25.00;38.70;;;;;;20295;6920;282235;31
2022/08/07 07:02:40;;;;;;;3.47;2.90;;;25.60;37.70;;;;;;20313;6920;299417;31
2022/08/07 07:05:09;;;;;;;3.03;2.85;;;26.00;37.00;;;;;;20514;6920;117060;31
2022/08/07 07:07:37;;;;;;;3.13;2.97;;;26.10;37.20;;;;;;20465;6920;121309;31
2022/08/07 07:10:00;;;;;;;3.30;3.10;;;26.00;37.10;;;;;;20281;6920;284912;31
2022/08/07 07:12:39;;;;;;;3.63;3.33;;;26.10;36.40;;;;;;20529;6920;117549;31
2022/08/07 07:15:08;;;;;;;2.93;2.83;;;26.10;36.70;;;;;;20298;6920;312802;31
2022/08/07 07:17:33;;;;;;;3.80;3.50;;;26.20;36.50;;;;;;20233;6920;433908;31
2022/08/07 07:19:59;;;;;;;3.42;3.22;;;26.40;35.90;;;;;;20290;6920;280514;31
2022/08/07 07:22:24;;;;;;;3.67;3.37;;;26.50;35.90;;;;;;20288;6920;288367;31
2022/08/07 07:24:50;;;;;;;3.37;3.17;;;26.60;36.20;;;;;;20503;6920;117523;31
2022/08/07 07:27:15;;;;;;;3.00;2.90;;;26.40;36.20;;;;;;20290;6920;286506;31
2022/08/07 07:29:41;;;;;;;4.10;3.90;;;26.40;36.30;;;;;;20493;6920;121639;31
2022/08/07 07:32:07;;;;;;;3.00;2.83;;;26.20;36.40;;;;;;20503;6920;120748;31
2022/08/07 07:34:32;;;;;;;3.70;3.50;;;25.90;36.90;;;;;;20498;6920;121440;31
2022/08/07 07:36:58;;;;;;;3.87;3.57;;;25.80;37.20;;;;;;20511;6920;122845;31
2022/08/07 07:39:25;;;;;;;3.55;3.35;;;25.60;37.30;;;;;;20269;6920;312079;31
2022/08/07 07:41:50;;;;;;;3.53;3.33;;;25.80;37.20;;;;;;20495;6920;117981;31
2022/08/07 07:44:16;;;;;;;3.55;3.35;;;25.80;37.10;;;;;;20295;6920;341101;31
2022/08/07 07:46:41;;;;;;;3.60;3.40;;;26.00;37.20;;;;;;20491;6920;117420;31
2022/08/07 07:49:07;;;;;;;2.77;2.67;;;26.00;37.20;;;;;;20505;6918;117464;31
2022/08/07 07:51:32;;;;;;;3.50;3.30;;;25.90;37.20;;;;;;20289;6919;311181;31
2022/08/07 07:53:58;;;;;;;2.87;2.77;;;26.20;36.90;;;;;;20505;6919;123199;31
2022/08/07 07:56:23;;;;;;;3.30;3.10;;;26.30;36.80;;;;;;20305;6920;311937;31
2022/08/07 07:58:49;;;;;;;3.53;3.00;;;26.50;36.20;;;;;;20498;6920;117304;31
2022/08/07 08:01:16;;;;;;;3.47;2.80;;;26.50;36.30;;;;;;20286;6920;311705;31
2022/08/07 08:03:42;;;;;;;3.37;3.17;;;26.70;35.90;;;;;;20459;6934;117632;31
2022/08/07 08:06:07;;;;;;;2.60;2.50;;;26.70;35.80;;;;;;20263;6934;280301;31
2022/08/07 08:08:33;;;;;;;2.57;2.37;;;26.90;35.60;;;;;;20460;6935;117894;31
2022/08/07 08:10:58;;;;;;;2.60;2.50;;;26.90;35.60;;;;;;20291;6920;313605;31
2022/08/07 08:13:24;;;;;;;2.30;2.20;;;27.10;35.20;;;;;;20241;6935;309938;31
2022/08/07 08:15:49;;;;;;;2.60;2.40;;;27.40;34.80;;;;;;20252;6935;311793;31
2022/08/07 08:18:15;;;;;;;2.23;2.13;;;27.70;34.20;;;;;;20263;6935;311035;31
2022/08/07 08:20:41;;;;;;;2.00;1.80;;;27.90;33.80;;;;;;20252;6935;311677;31
2022/08/07 08:28:37;;;;;;;2.10;2.00;;;27.70;33.60;;;;;;20252;6935;280648;31
2022/08/07 08:31:03;;;;;;;35.10;32.03;;;27.80;31.90;;;;;;19979;6935;315642;31
2022/08/07 08:33:28;;;;;;;2.50;2.30;;;28.10;32.30;;;;;;20487;6900;118970;31
2022/08/07 08:35:54;;;;;;;2.03;2.03;;;27.90;32.20;;;;;;20562;6900;117408;31
2022/08/07 08:38:20;;;;;;;1.90;1.80;;;27.70;32.50;;;;;;20555;6900;117975;31
2022/08/07 08:40:55;;;;;;;2.07;1.97;;;27.60;32.90;;;;;;20558;6900;116851;31
2022/08/07 08:43:37;;;;;;;1.80;1.80;;;27.50;33.00;;;;;;20325;6900;339059;31
2022/08/07 08:46:09;;;;;;;1.90;1.70;;;27.80;32.00;;;;;;20333;6900;309742;31
2022/08/07 08:48:35;;;;;;;1.40;1.40;;;28.20;31.20;;;;;;20226;6900;117055;31
2022/08/07 08:51:00;;;;;;;1.60;1.50;;;28.20;31.40;;;;;;20541;6900;117276;31
2022/08/07 08:53:32;;;;;;;1.50;1.33;;;28.10;31.50;;;;;;20324;6900;308835;31
2022/08/07 08:56:07;;;;;;;1.10;1.10;;;28.30;31.00;;;;;;20557;6900;118830;31
2022/08/07 08:58:42;;;;;;;1.20;1.20;;;28.30;31.40;;;;;;20353;6900;280669;31
2022/08/07 09:01:14;;;;;;;1.53;1.20;;;28.60;30.10;;;;;;20339;6898;308908;31
2022/08/07 09:04:05;;;;;;;1.17;1.10;;;28.90;29.60;;;;;;20340;6899;342526;31
2022/08/07 09:06:57;;;;;;;1.00;1.00;;;29.10;29.20;;;;;;19651;6900;299201;31
2022/08/07 09:09:39;;;;;;;1.20;1.00;;;29.40;28.80;;;;;;20548;6900;118720;31
2022/08/07 09:12:11;;;;;;;0.80;0.80;;;29.30;29.40;;;;;;20371;6900;337480;31
2022/08/07 09:14:39;;;;;;;1.13;1.13;;;29.50;28.30;;;;;;20617;6900;116433;31
2022/08/07 09:17:06;;;;;;;0.90;0.90;;;29.40;28.50;;;;;;20347;6900;279428;31
2022/08/07 09:19:34;;;;;;;1.23;1.23;;;29.40;28.30;;;;;;20244;6935;280346;31
2022/08/07 09:22:39;;;;;;;1.40;1.20;;;29.60;28.90;;;;;;20447;6935;116842;31
2022/08/07 09:25:08;;;;;;;1.07;1.00;;;29.50;28.60;;;;;;20508;6920;117048;31
2022/08/07 09:27:43;;;;;;;1.03;0.90;;;29.30;28.90;;;;;;20263;6935;308710;31
2022/08/07 09:30:08;;;;;;;1.20;1.13;;;29.40;28.60;;;;;;20454;6935;116393;31
2022/08/07 09:32:55;;;;;;;1.80;0.80;;;29.50;28.60;;;;;;20455;6935;117466;31
2022/08/07 09:35:33;;;;;;;1.00;1.00;;;29.40;28.70;;;;;;20448;6935;118326;31
2022/08/07 09:38:10;;;;;;;1.50;0.90;;;29.10;28.70;;;;;;20456;6935;119343;31
2022/08/07 09:40:57;;;;;;;2.12;1.08;;;28.90;28.70;;;;;;20254;6935;280369;31
2022/08/07 09:43:32;;;;;;;1.10;1.00;;;29.00;28.40;;;;;;20430;6935;117344;31
2022/08/07 09:46:08;;;;;;;1.07;0.97;;;29.00;28.30;;;;;;20069;6935;309801;31
2022/08/07 09:48:33;;;;;;;1.07;1.07;;;29.10;27.80;;;;;;20444;6935;117356;31
2022/08/07 09:51:12;;;;;;;1.07;1.07;;;29.00;27.80;;;;;;20444;6935;117310;31
2022/08/07 09:53:37;;;;;;;1.25;1.15;;;28.90;28.10;;;;;;20222;6935;280258;31
2022/08/07 09:56:19;;;;;;;1.13;0.93;;;29.00;27.70;;;;;;20250;6935;297628;31
2022/08/07 09:58:58;;;;;;;1.20;1.10;;;29.30;26.50;;;;;;20458;6932;116347;31
2022/08/07 10:02:03;;;;;;;1.17;1.17;;;29.40;26.70;;;;;;20494;6920;118659;31
2022/08/07 10:04:32;;;;;;;2.30;0.80;;;29.20;26.80;;;;;;20239;6935;309626;31
2022/08/07 10:07:01;;;;;;;1.30;0.80;;;29.50;26.20;;;;;;20221;6935;309481;31
2022/08/07 10:09:43;;;;;;;0.70;0.70;;;29.90;25.80;;;;;;20220;6935;322611;31
2022/08/07 10:12:13;;;;;;;1.30;0.77;;;30.20;25.20;;;;;;19855;6934;116425;31
2022/08/07 10:14:40;;;;;;;0.77;0.77;;;30.20;25.20;;;;;;20241;6934;339880;31
2022/08/07 10:17:19;;;;;;;0.60;0.60;;;30.10;24.70;;;;;;20361;6934;117177;31
2022/08/07 10:19:48;;;;;;;0.77;0.77;;;30.00;25.10;;;;;;20472;6934;118716;31
2022/08/07 10:22:43;;;;;;;0.87;0.87;;;29.70;25.60;;;;;;20251;6932;312748;31
2022/08/07 10:25:15;;;;;;;0.80;0.80;;;29.80;25.30;;;;;;20318;6920;288954;31
2022/08/07 10:27:53;;;;;;;0.93;0.77;;;30.30;24.80;;;;;;20257;6934;282235;31
2022/08/07 10:30:42;;;;;;;2.70;0.80;;;30.60;24.80;;;;;;20260;6934;312650;31
2022/08/07 10:33:31;;;;;;;0.80;0.80;;;30.80;24.10;;;;;;20266;6935;293722;31
2022/08/07 10:36:06;;;;;;;0.80;0.80;;;30.90;24.40;;;;;;20260;6935;310872;31
2022/08/07 10:39:01;;;;;;;0.80;0.80;;;31.10;24.00;;;;;;20240;6935;280877;31
2022/08/07 10:41:33;;;;;;;0.67;0.67;;;31.20;23.70;;;;;;20450;6935;117358;31
2022/08/07 10:44:22;;;;;;;0.90;0.90;;;31.00;24.20;;;;;;20261;6935;312305;31
2022/08/07 10:47:01;;;;;;;0.60;0.60;;;31.00;24.30;;;;;;20513;6920;117152;31
2022/08/07 10:49:37;;;;;;;0.73;0.73;;;30.90;24.40;;;;;;20422;6935;117215;31
2022/08/07 10:52:13;;;;;;;0.70;0.70;;;30.90;24.30;;;;;;20263;6935;290148;31
2022/08/07 10:54:45;;;;;;;0.90;0.90;;;30.90;24.20;;;;;;20133;6935;305891;31
2022/08/07 10:57:14;;;;;;;1.33;0.77;;;31.10;23.60;;;;;;20339;6935;116577;31
2022/08/07 10:59:56;;;;;;;0.80;0.70;;;31.00;24.00;;;;;;20229;6935;280124;31
2022/08/07 11:02:21;;;;;;;1.40;0.70;;;31.00;24.10;;;;;;20265;6935;283018;31
2022/08/07 11:04:57;;;;;;;1.23;0.90;;;31.10;23.80;;;;;;20453;6935;120209;31
2022/08/07 11:08:03;;;;;;;0.70;0.70;;;30.90;24.10;;;;;;20227;6935;340625;31
2022/08/07 11:10:38;;;;;;;1.17;1.00;;;30.90;24.30;;;;;;20323;6920;315937;31
2022/08/07 11:13:10;;;;;;;0.67;0.67;;;31.20;23.80;;;;;;20476;6935;117256;31
2022/08/07 11:15:35;;;;;;;0.70;0.70;;;31.10;24.00;;;;;;20264;6935;310436;31
2022/08/07 11:18:07;;;;;;;0.70;0.70;;;31.20;24.30;;;;;;20537;6925;116484;31
2022/08/07 11:20:38;;;;;;;0.70;0.70;;;31.20;24.40;;;;;;19926;6935;118721;31
2022/08/07 11:23:13;;;;;;;0.90;0.80;;;31.20;24.30;;;;;;20481;6933;116690;31
2022/08/07 11:25:51;;;;;;;1.70;0.80;;;31.10;24.10;;;;;;20471;6924;121077;31
2022/08/07 11:28:20;;;;;;;1.00;1.00;;;30.80;24.30;;;;;;20266;6924;342662;31
2022/08/07 11:31:02;;;;;;;0.70;0.70;;;31.00;24.50;;;;;;20457;6934;117309;31
2022/08/07 11:33:50;;;;;;;0.90;0.90;;;31.10;24.40;;;;;;20234;6934;283547;31
2022/08/07 11:36:26;;;;;;;1.03;0.90;;;31.30;24.40;;;;;;20291;6920;309370;31
2022/08/07 11:39:08;;;;;;;0.60;0.60;;;31.50;22.90;;;;;;20450;6934;116646;31
2022/08/07 11:41:43;;;;;;;0.70;0.70;;;31.30;23.50;;;;;;20217;6934;309889;31
2022/08/07 11:44:32;;;;;;;0.70;0.70;;;31.20;23.30;;;;;;20268;6932;309158;31
2022/08/07 11:47:17;;;;;;;2.03;0.90;;;31.40;23.20;;;;;;20518;6920;119578;31
2022/08/07 11:50:03;;;;;;;0.90;0.90;;;31.20;23.40;;;;;;20485;6935;121048;31
2022/08/07 11:52:41;;;;;;;1.00;0.90;;;30.90;23.70;;;;;;20253;6920;313864;31
2022/08/07 11:55:30;;;;;;;0.80;0.80;;;31.00;23.80;;;;;;20243;6935;281948;31
2022/08/07 11:58:21;;;;;;;0.70;0.70;;;31.00;24.00;;;;;;20267;6935;341371;31
2022/08/07 12:00:57;;;;;;;1.00;0.90;;;31.10;23.80;;;;;;20449;6935;116623;31
2022/08/07 12:03:49;;;;;;;0.90;0.90;;;30.90;24.20;;;;;;20422;6935;117861;31
2022/08/07 12:06:35;;;;;;;1.00;1.00;;;30.60;25.00;;;;;;19807;6925;118977;31
2022/08/07 12:09:06;;;;;;;1.20;0.70;;;30.40;24.70;;;;;;20260;6935;280930;31
2022/08/07 12:11:51;;;;;;;0.80;0.80;;;30.50;24.30;;;;;;20236;6935;298560;31
2022/08/07 12:14:20;;;;;;;1.00;1.00;;;30.80;24.10;;;;;;20464;6935;117522;31
2022/08/07 12:16:46;;;;;;;1.03;0.87;;;30.70;24.20;;;;;;20453;6935;117134;31
2022/08/07 12:19:51;;;;;;;0.90;0.90;;;30.40;24.40;;;;;;20246;6935;303831;31
2022/08/07 12:22:34;;;;;;;2.30;0.90;;;30.40;24.70;;;;;;20475;6935;116671;31
2022/08/07 12:27:44;;;;;;;0.90;0.90;;;30.30;24.80;;;;;;20258;6935;338479;31
2022/08/07 12:30:09;;;;;;;1.43;0.80;;;30.50;24.80;;;;;;20439;6935;120289;31
2022/08/07 12:32:37;;;;;;;0.90;0.83;;;30.60;24.70;;;;;;20257;6935;283862;31
2022/08/07 12:35:00;;;;;;;0.70;0.70;;;30.90;24.70;;;;;;20245;6932;309871;31
2022/08/07 12:37:26;;;;;;;1.00;1.00;;;31.10;24.30;;;;;;20234;6934;311910;31
2022/08/07 12:39:52;;;;;;;1.67;0.83;;;31.20;24.30;;;;;;20468;6934;123888;31
2022/08/07 12:42:20;;;;;;;0.80;0.80;;;31.10;24.40;;;;;;20474;6934;118240;31
2022/08/07 12:44:46;;;;;;;3.07;1.00;;;30.90;24.50;;;;;;20460;6934;118149;31
2022/08/07 12:47:18;;;;;;;1.00;1.00;;;30.80;24.40;;;;;;20485;6934;116636;31
2022/08/07 12:49:53;;;;;;;0.90;0.90;;;30.80;24.50;;;;;;20254;6934;281740;31
2022/08/07 12:52:28;;;;;;;0.80;0.80;;;30.90;24.10;;;;;;20478;6925;116876;31
2022/08/07 12:54:56;;;;;;;2.37;0.83;;;30.90;24.30;;;;;;19855;6925;118405;31
2022/08/07 12:57:22;;;;;;;0.90;0.90;;;30.70;24.50;;;;;;20448;6935;117666;31
2022/08/07 12:59:47;;;;;;;0.80;0.80;;;30.40;24.70;;;;;;20472;6935;116518;31
2022/08/07 13:02:42;;;;;;;1.00;1.00;;;30.20;25.00;;;;;;20492;6925;116661;31
2022/08/07 13:05:38;;;;;;;0.90;0.90;;;30.20;25.20;;;;;;20503;6925;116348;31
2022/08/07 13:08:10;;;;;;;1.40;0.90;;;30.10;25.30;;;;;;20468;6935;118152;31